Time;durP1;ratioP1;P1;durP2;ratioP2;P2;SDS_P1;SDS_P2;PMS_P1;PMS_P2;Temp;Humidity;BMP_temperature;BMP_pressure;BME280_temperature;BME280_humidity;BME280_pressure;Samples;Min_cycle;Max_cycle;Signal;HPM_P1;HPM_P2
2022/09/30 00:00:42;;;;;;;;;;;13.90;91.60;;;;;;5033857;28;20385;-90
2022/09/30 00:03:07;;;;;;;;;;;13.90;91.50;;;;;;5033809;28;20411;-89
2022/09/30 00:05:33;;;;;;;;;;;13.80;91.50;;;;;;5032808;28;20394;-90
2022/09/30 00:07:59;;;;;;;;;;;13.90;91.50;;;;;;5032433;28;19947;-90
2022/09/30 00:10:24;;;;;;;;;;;13.90;91.30;;;;;;5033740;28;20131;-90
2022/09/30 00:12:51;;;;;;;;;;;13.90;91.10;;;;;;5033518;28;20411;-90
2022/09/30 00:15:16;;;;;;;;;;;13.90;91.00;;;;;;5050244;28;19976;-90
2022/09/30 00:17:42;;;;;;;;;;;13.90;90.50;;;;;;5073462;28;20297;-90
2022/09/30 00:20:08;;;;;;;;;;;13.70;90.30;;;;;;5073357;28;19996;-90
2022/09/30 00:22:34;;;;;;;;;;;13.60;90.00;;;;;;5073321;28;19993;-90
2022/09/30 00:24:59;;;;;;;;;;;13.50;90.10;;;;;;5073356;28;19939;-90
2022/09/30 00:27:25;;;;;;;;;;;13.40;90.60;;;;;;5073410;28;19939;-90
2022/09/30 00:29:50;;;;;;;;;;;13.40;90.70;;;;;;5073119;28;20307;-90
2022/09/30 00:32:16;;;;;;;;;;;13.30;91.00;;;;;;5073221;28;20393;-90
2022/09/30 00:34:42;;;;;;;;;;;13.30;91.00;;;;;;5073300;28;19937;-90
2022/09/30 00:37:07;;;;;;;;;;;13.30;91.00;;;;;;5073445;28;19996;-90
2022/09/30 00:39:35;;;;;;;;;;;13.30;91.20;;;;;;5073171;28;19941;-90
2022/09/30 00:42:05;;;;;;;;;;;13.30;91.40;;;;;;5072829;28;19945;-90
2022/09/30 00:44:39;;;;;;;;;;;13.30;91.30;;;;;;5073022;28;19939;-90
2022/09/30 00:47:15;;;;;;;;;;;13.40;91.50;;;;;;5073130;28;19948;-90
2022/09/30 00:49:41;;;;;;;;;;;13.40;91.60;;;;;;5072871;28;20333;-90
2022/09/30 00:52:06;;;;;;;;;;;13.40;91.60;;;;;;5073096;28;19951;-90
2022/09/30 00:54:33;;;;;;;;;;;13.50;91.70;;;;;;5077242;28;19978;-90
2022/09/30 00:57:01;;;;;;;;;;;13.50;91.80;;;;;;5077179;28;19939;-90
2022/09/30 00:59:32;;;;;;;;;;;13.40;91.90;;;;;;5077159;28;19944;-90
2022/09/30 01:01:58;;;;;;;;;;;13.50;92.10;;;;;;5077213;28;19945;-90
2022/09/30 01:04:24;;;;;;;;;;;13.50;92.30;;;;;;5077022;28;20049;-90
2022/09/30 01:06:50;;;;;;;;;;;13.50;92.20;;;;;;5077016;28;19940;-90
2022/09/30 01:09:16;;;;;;;;;;;13.50;92.10;;;;;;5077243;28;19947;-90
2022/09/30 01:11:41;;;;;;;;;;;13.50;92.00;;;;;;5076731;28;19946;-90
2022/09/30 01:14:09;;;;;;;;;;;13.40;91.80;;;;;;5076819;28;19948;-90
2022/09/30 01:16:40;;;;;;;;;;;13.40;91.60;;;;;;5076642;28;19980;-90
2022/09/30 01:19:23;;;;;;;;;;;13.30;91.60;;;;;;5076802;28;19943;-91
2022/09/30 01:21:51;;;;;;;;;;;13.30;91.70;;;;;;5076661;28;19940;-90
2022/09/30 01:24:16;;;;;;;;;;;13.20;91.80;;;;;;5076630;28;20061;-90
2022/09/30 01:26:42;;;;;;;;;;;13.20;92.00;;;;;;5076637;28;20033;-90
2022/09/30 01:29:22;;;;;;;;;;;13.20;92.10;;;;;;5076533;28;20325;-90
2022/09/30 01:31:55;;;;;;;;;;;13.30;92.30;;;;;;5076512;28;19938;-90
2022/09/30 01:34:24;;;;;;;;;;;13.30;92.10;;;;;;5076492;28;19940;-90
2022/09/30 01:36:52;;;;;;;;;;;13.40;92.10;;;;;;5076244;28;20397;-90
2022/09/30 01:39:23;;;;;;;;;;;13.30;91.70;;;;;;5076327;28;19994;-90
2022/09/30 01:41:51;;;;;;;;;;;13.20;91.80;;;;;;5076357;28;19972;-90
2022/09/30 01:44:35;;;;;;;;;;;13.30;91.80;;;;;;5075881;28;19965;-90
2022/09/30 01:47:04;;;;;;;;;;;13.30;92.10;;;;;;5076204;28;19938;-90
2022/09/30 01:49:33;;;;;;;;;;;13.30;92.20;;;;;;5076139;28;20414;-90
2022/09/30 01:52:07;;;;;;;;;;;13.40;92.10;;;;;;5076000;28;20452;-90
2022/09/30 01:54:33;;;;;;;;;;;13.40;92.00;;;;;;5076134;28;19945;-90
2022/09/30 01:57:25;;;;;;;;;;;13.40;92.00;;;;;;5076137;28;20115;-90
2022/09/30 01:59:55;;;;;;;;;;;13.40;92.00;;;;;;5071861;28;19949;-89
2022/09/30 02:02:24;;;;;;;;;;;13.40;91.90;;;;;;5075796;28;19944;-90
2022/09/30 02:04:52;;;;;;;;;;;13.30;92.10;;;;;;5074627;28;20028;-90
2022/09/30 02:07:25;;;;;;;;;;;13.40;92.10;;;;;;5057977;28;19952;-90
2022/09/30 02:09:57;;;;;;;;;;;13.40;92.20;;;;;;5075852;28;19940;-90
2022/09/30 02:12:25;;;;;;;;;;;13.40;92.10;;;;;;5075756;28;19946;-90
2022/09/30 02:14:57;;;;;;;;;;;13.30;92.20;;;;;;5075652;28;19973;-90
2022/09/30 02:17:38;;;;;;;;;;;13.40;92.40;;;;;;5075673;28;19943;-90
2022/09/30 02:20:09;;;;;;;;;;;13.50;92.30;;;;;;5075663;28;20414;-90
2022/09/30 02:22:41;;;;;;;;;;;13.60;92.20;;;;;;5075477;28;20416;-90
2022/09/30 02:25:08;;;;;;;;;;;13.60;92.00;;;;;;5075565;28;19982;-90
2022/09/30 02:27:41;;;;;;;;;;;13.60;91.80;;;;;;5075519;28;20038;-90
2022/09/30 02:30:08;;;;;;;;;;;13.60;91.60;;;;;;5075244;28;19965;-90
2022/09/30 02:32:37;;;;;;;;;;;13.70;91.50;;;;;;5075410;28;20321;-90
2022/09/30 02:35:15;;;;;;;;;;;13.70;91.50;;;;;;5075322;28;20453;-90
2022/09/30 02:37:44;;;;;;;;;;;13.70;91.40;;;;;;5075315;28;19940;-90
2022/09/30 02:40:16;;;;;;;;;;;13.70;91.50;;;;;;5075569;28;19972;-90
2022/09/30 02:42:43;;;;;;;;;;;13.80;91.30;;;;;;5075137;28;19982;-90
2022/09/30 02:45:09;;;;;;;;;;;13.90;91.20;;;;;;5075190;28;19973;-90
2022/09/30 02:47:38;;;;;;;;;;;13.80;91.10;;;;;;5075425;28;19994;-90
2022/09/30 02:50:07;;;;;;;;;;;13.70;90.90;;;;;;5075066;28;19950;-90
2022/09/30 02:52:58;;;;;;;;;;;13.60;91.10;;;;;;5074908;28;19965;-90
2022/09/30 02:55:33;;;;;;;;;;;13.60;91.20;;;;;;5074947;28;20419;-90
2022/09/30 02:57:59;;;;;;;;;;;13.60;91.30;;;;;;5074720;28;20410;-90
2022/09/30 03:00:25;;;;;;;;;;;13.60;91.40;;;;;;5074696;28;19955;-90
2022/09/30 03:02:53;;;;;;;;;;;13.60;91.50;;;;;;5074747;28;20049;-90
2022/09/30 03:05:18;;;;;;;;;;;13.60;91.60;;;;;;5074802;28;19938;-90
2022/09/30 03:07:44;;;;;;;;;;;13.60;91.70;;;;;;5074839;28;20376;-90
2022/09/30 03:10:13;;;;;;;;;;;13.70;91.70;;;;;;5074752;28;20276;-90
2022/09/30 03:13:05;;;;;;;;;;;13.70;91.70;;;;;;5074831;28;19944;-90
2022/09/30 03:16:02;;;;;;;;;;;13.80;91.60;;;;;;5055958;28;19985;-90
2022/09/30 03:18:44;;;;;;;;;;;13.90;91.50;;;;;;5029937;28;19944;-90
2022/09/30 03:21:28;;;;;;;;;;;13.90;91.30;;;;;;5074481;28;19992;-90
2022/09/30 03:23:54;;;;;;;;;;;13.90;91.20;;;;;;5074364;28;20431;-90
2022/09/30 03:26:33;;;;;;;;;;;13.90;91.20;;;;;;5074656;28;19938;-90
2022/09/30 03:29:05;;;;;;;;;;;13.90;91.10;;;;;;5074385;28;19938;-90
2022/09/30 03:31:33;;;;;;;;;;;13.90;90.90;;;;;;5074486;28;19943;-90
2022/09/30 03:34:06;;;;;;;;;;;13.90;90.80;;;;;;5074221;28;20443;-90
2022/09/30 03:36:41;;;;;;;;;;;13.90;90.70;;;;;;5074214;28;19997;-90
2022/09/30 03:39:06;;;;;;;;;;;13.80;90.70;;;;;;5074066;28;19932;-90
2022/09/30 03:41:51;;;;;;;;;;;13.80;90.80;;;;;;5073988;28;20401;-90
2022/09/30 03:44:23;;;;;;;;;;;13.70;90.80;;;;;;5073922;28;19964;-90
2022/09/30 03:46:55;;;;;;;;;;;13.60;90.80;;;;;;5074045;28;19942;-90
2022/09/30 03:49:23;;;;;;;;;;;13.50;90.80;;;;;;5073822;28;19960;-90
2022/09/30 03:51:48;;;;;;;;;;;13.40;90.90;;;;;;5073863;28;20451;-90
2022/09/30 03:54:15;;;;;;;;;;;13.30;91.10;;;;;;5073843;28;19939;-91
2022/09/30 03:56:42;;;;;;;;;;;13.30;91.50;;;;;;5073479;28;19949;-90
2022/09/30 03:59:24;;;;;;;;;;;13.30;91.90;;;;;;5073673;28;19943;-90
2022/09/30 04:01:50;;;;;;;;;;;13.20;92.40;;;;;;5055683;28;19938;-90
2022/09/30 04:04:16;;;;;;;;;;;13.20;92.70;;;;;;5073531;28;19965;-90
2022/09/30 04:06:42;;;;;;;;;;;13.20;92.90;;;;;;5073712;28;19984;-90
2022/09/30 04:09:08;;;;;;;;;;;13.20;92.90;;;;;;5073555;28;19992;-90
2022/09/30 04:11:33;;;;;;;;;;;13.20;93.00;;;;;;5073566;28;19943;-90
2022/09/30 04:14:00;;;;;;;;;;;13.30;92.90;;;;;;5073587;28;19948;-90
2022/09/30 04:16:28;;;;;;;;;;;13.20;92.80;;;;;;5073264;28;19983;-90
2022/09/30 04:18:55;;;;;;;;;;;13.20;92.80;;;;;;5073433;28;19936;-90
2022/09/30 04:21:21;;;;;;;;;;;13.20;92.70;;;;;;5073520;28;19944;-90
2022/09/30 04:23:47;;;;;;;;;;;13.10;92.60;;;;;;5073072;28;19962;-90
2022/09/30 04:26:13;;;;;;;;;;;13.10;92.50;;;;;;5067752;28;19991;-90
2022/09/30 04:28:39;;;;;;;;;;;13.20;92.60;;;;;;5072461;28;20039;-90
2022/09/30 04:31:05;;;;;;;;;;;13.20;92.50;;;;;;5073304;28;19989;-90
2022/09/30 04:33:31;;;;;;;;;;;13.10;92.20;;;;;;5073134;28;19937;-90
2022/09/30 04:35:57;;;;;;;;;;;13.10;92.10;;;;;;5073297;28;19938;-90
2022/09/30 04:38:23;;;;;;;;;;;13.10;92.00;;;;;;5073256;28;20035;-90
2022/09/30 04:40:49;;;;;;;;;;;13.10;92.10;;;;;;5073426;28;19975;-90
2022/09/30 04:43:18;;;;;;;;;;;13.10;91.70;;;;;;5073112;28;20021;-90
2022/09/30 04:45:44;;;;;;;;;;;12.90;91.30;;;;;;5073317;28;20406;-90
2022/09/30 04:48:11;;;;;;;;;;;12.80;91.40;;;;;;5073034;28;20423;-90
2022/09/30 04:50:36;;;;;;;;;;;12.70;91.90;;;;;;5072471;28;19939;-90
2022/09/30 04:53:02;;;;;;;;;;;12.60;92.10;;;;;;5072953;28;19940;-90
2022/09/30 04:55:28;;;;;;;;;;;12.60;92.30;;;;;;5072840;28;20399;-90
2022/09/30 04:57:54;;;;;;;;;;;12.60;92.70;;;;;;5073069;28;20084;-89
2022/09/30 05:00:19;;;;;;;;;;;12.60;92.80;;;;;;5072987;28;20384;-90
2022/09/30 05:02:45;;;;;;;;;;;12.70;92.90;;;;;;5072023;28;20006;-90
2022/09/30 05:05:11;;;;;;;;;;;12.80;93.00;;;;;;5072937;28;19950;-90
2022/09/30 05:07:36;;;;;;;;;;;12.80;93.00;;;;;;5072975;28;19947;-90
2022/09/30 05:10:02;;;;;;;;;;;12.80;93.10;;;;;;5073188;28;19953;-89
2022/09/30 05:12:28;;;;;;;;;;;12.90;93.20;;;;;;5072566;28;19952;-90
2022/09/30 05:14:53;;;;;;;;;;;12.90;93.20;;;;;;5072546;28;19975;-89
2022/09/30 05:17:19;;;;;;;;;;;12.90;93.10;;;;;;5072852;28;19942;-89
2022/09/30 05:19:44;;;;;;;;;;;12.90;93.00;;;;;;5072438;28;20393;-90
2022/09/30 05:22:10;;;;;;;;;;;12.90;93.00;;;;;;5072113;28;19950;-89
2022/09/30 05:24:35;;;;;;;;;;;12.90;93.00;;;;;;5070680;28;20399;-89
2022/09/30 05:27:01;;;;;;;;;;;12.90;93.00;;;;;;5071828;28;20443;-89
2022/09/30 05:29:26;;;;;;;;;;;12.90;93.00;;;;;;5067846;28;19948;-89
2022/09/30 05:31:52;;;;;;;;;;;13.00;93.00;;;;;;5071847;28;19956;-89
2022/09/30 05:34:18;;;;;;;;;;;13.10;93.10;;;;;;5070594;28;20390;-90
2022/09/30 05:36:43;;;;;;;;;;;13.00;93.00;;;;;;5072198;28;19981;-90
2022/09/30 05:39:10;;;;;;;;;;;13.10;92.90;;;;;;5073655;28;20082;-90
2022/09/30 05:41:35;;;;;;;;;;;13.20;92.90;;;;;;5075308;28;19947;-90
2022/09/30 05:44:01;;;;;;;;;;;13.30;92.70;;;;;;5075698;28;19964;-90
2022/09/30 05:46:27;;;;;;;;;;;13.30;92.60;;;;;;5075570;28;20348;-90
2022/09/30 05:48:56;;;;;;;;;;;13.40;92.30;;;;;;5076188;28;19939;-90
2022/09/30 05:51:22;;;;;;;;;;;13.30;91.40;;;;;;5075654;28;19958;-90
2022/09/30 05:53:47;;;;;;;;;;;13.20;91.20;;;;;;5074361;28;20020;-90
2022/09/30 05:56:13;;;;;;;;;;;13.20;91.20;;;;;;5054580;28;19946;-90
2022/09/30 05:58:40;;;;;;;;;;;13.20;91.50;;;;;;5074812;28;19948;-90
2022/09/30 06:01:10;;;;;;;;;;;13.30;91.70;;;;;;5074403;28;19940;-90
2022/09/30 06:03:37;;;;;;;;;;;13.40;91.60;;;;;;5073100;28;19968;-90
2022/09/30 06:06:03;;;;;;;;;;;13.50;91.40;;;;;;5073939;28;19939;-90
2022/09/30 06:08:29;;;;;;;;;;;13.60;91.30;;;;;;5072783;28;20315;-90
2022/09/30 06:10:58;;;;;;;;;;;13.60;91.50;;;;;;5074283;28;19944;-89
2022/09/30 06:13:24;;;;;;;;;;;13.70;91.80;;;;;;5066273;28;20042;-89
2022/09/30 06:15:59;;;;;;;;;;;13.80;91.90;;;;;;5070859;28;19976;-89
2022/09/30 06:18:25;;;;;;;;;;;13.90;91.70;;;;;;5063645;28;20153;-89
2022/09/30 06:20:52;;;;;;;;;;;14.00;91.40;;;;;;5067131;28;20310;-90
2022/09/30 06:23:17;;;;;;;;;;;14.10;91.20;;;;;;5066765;28;19958;-90
2022/09/30 06:25:44;;;;;;;;;;;14.10;91.00;;;;;;5072610;28;20490;-90
2022/09/30 06:28:09;;;;;;;;;;;14.20;90.90;;;;;;5067945;28;19987;-90
2022/09/30 06:30:35;;;;;;;;;;;14.30;90.80;;;;;;5064171;28;20035;-90
2022/09/30 06:33:01;;;;;;;;;;;14.30;90.60;;;;;;5066055;28;19948;-90
2022/09/30 06:35:27;;;;;;;;;;;14.40;90.40;;;;;;5071384;28;19959;-90
2022/09/30 06:37:53;;;;;;;;;;;14.50;90.30;;;;;;5055796;28;20325;-90
2022/09/30 06:40:22;;;;;;;;;;;14.60;90.40;;;;;;5068481;28;19947;-90
2022/09/30 06:42:48;;;;;;;;;;;14.60;90.70;;;;;;5066516;28;19960;-89
2022/09/30 06:45:14;;;;;;;;;;;14.70;90.50;;;;;;5072570;28;20321;-90
2022/09/30 06:47:40;;;;;;;;;;;14.80;90.70;;;;;;5070122;28;19943;-90
2022/09/30 06:50:06;;;;;;;;;;;14.90;90.70;;;;;;5062793;28;20405;-90
2022/09/30 06:52:32;;;;;;;;;;;15.00;90.80;;;;;;5072008;28;20058;-90
2022/09/30 06:54:57;;;;;;;;;;;15.20;90.80;;;;;;5052595;28;20388;-90
2022/09/30 06:57:25;;;;;;;;;;;15.30;90.40;;;;;;5072180;28;19953;-90
2022/09/30 06:59:51;;;;;;;;;;;15.40;90.00;;;;;;5070866;28;19954;-90
2022/09/30 07:02:17;;;;;;;;;;;15.60;89.80;;;;;;5070242;28;19938;-90
2022/09/30 07:04:42;;;;;;;;;;;15.70;89.50;;;;;;5070295;28;19943;-90
2022/09/30 07:07:08;;;;;;;;;;;15.80;89.00;;;;;;5072248;28;20385;-90
2022/09/30 07:09:33;;;;;;;;;;;15.80;88.70;;;;;;5066759;28;19950;-90
2022/09/30 07:11:59;;;;;;;;;;;15.90;88.10;;;;;;5066195;28;19944;-90
2022/09/30 07:14:24;;;;;;;;;;;15.90;87.10;;;;;;5077424;22;19957;-90
2022/09/30 07:16:53;;;;;;;;;;;16.00;86.70;;;;;;5091395;28;19957;-90
2022/09/30 07:19:21;;;;;;;;;;;16.00;86.40;;;;;;5092977;28;20421;-90
2022/09/30 07:21:50;;;;;;;;;;;16.00;86.30;;;;;;5092157;28;19947;-90
2022/09/30 07:24:16;;;;;;;;;;;16.10;86.30;;;;;;5092202;28;19992;-90
2022/09/30 07:26:44;;;;;;;;;;;16.10;86.20;;;;;;5085863;28;20540;-90
2022/09/30 07:29:12;;;;;;;;;;;16.20;86.10;;;;;;5077163;28;19944;-90
2022/09/30 07:31:38;;;;;;;;;;;16.20;86.10;;;;;;5088042;28;19949;-90
2022/09/30 07:34:05;;;;;;;;;;;16.30;86.00;;;;;;5091539;28;19965;-90
2022/09/30 07:36:31;;;;;;;;;;;16.40;86.00;;;;;;5084737;28;19940;-90
2022/09/30 07:38:57;;;;;;;;;;;16.50;85.80;;;;;;5070519;28;19950;-90
2022/09/30 07:41:27;;;;;;;;;;;16.60;85.60;;;;;;5084805;28;19940;-90
2022/09/30 07:43:55;;;;;;;;;;;16.60;85.40;;;;;;5073162;28;19965;-90
2022/09/30 07:46:25;;;;;;;;;;;16.70;85.50;;;;;;5089187;28;20051;-90
2022/09/30 07:48:53;;;;;;;;;;;16.80;85.00;;;;;;5090981;28;19955;-90
2022/09/30 07:51:19;;;;;;;;;;;16.90;84.80;;;;;;5085207;28;19983;-90
2022/09/30 07:53:46;;;;;;;;;;;16.90;84.70;;;;;;5070366;28;19959;-90
2022/09/30 07:56:12;;;;;;;;;;;17.00;84.40;;;;;;5071846;28;19948;-90
2022/09/30 07:58:38;;;;;;;;;;;17.10;84.30;;;;;;5067670;28;19948;-90
2022/09/30 08:01:05;;;;;;;;;;;17.10;84.20;;;;;;5064858;28;20447;-90
2022/09/30 08:03:32;;;;;;;;;;;17.20;83.90;;;;;;5062978;28;19962;-90
2022/09/30 08:06:08;;;;;;;;;;;17.20;83.70;;;;;;5070354;28;20001;-90
2022/09/30 08:08:34;;;;;;;;;;;17.30;83.70;;;;;;5070073;28;20438;-90
2022/09/30 08:11:00;;;;;;;;;;;17.30;83.40;;;;;;5065389;28;20035;-90
2022/09/30 08:13:26;;;;;;;;;;;17.30;83.00;;;;;;5070354;28;20000;-90
2022/09/30 08:15:51;;;;;;;;;;;17.30;83.40;;;;;;5069504;28;20056;-90
2022/09/30 08:18:17;;;;;;;;;;;17.30;83.90;;;;;;5065099;28;19986;-90
2022/09/30 08:20:42;;;;;;;;;;;17.30;84.10;;;;;;5072073;28;20044;-90
2022/09/30 08:23:08;;;;;;;;;;;17.40;84.50;;;;;;5071603;28;19951;-90
2022/09/30 08:25:33;;;;;;;;;;;17.50;84.80;;;;;;5070677;28;20052;-90
2022/09/30 08:27:59;;;;;;;;;;;17.50;84.70;;;;;;5067371;28;19947;-90
2022/09/30 08:30:24;;;;;;;;;;;17.60;84.90;;;;;;5069255;28;20046;-90
2022/09/30 08:32:50;;;;;;;;;;;17.70;85.20;;;;;;5071037;28;19943;-90
2022/09/30 08:35:16;;;;;;;;;;;17.80;85.40;;;;;;5070096;28;20042;-90
2022/09/30 08:37:41;;;;;;;;;;;17.90;85.00;;;;;;5068835;28;20097;-90
2022/09/30 08:40:16;;;;;;;;;;;18.10;85.60;;;;;;5070562;28;20402;-90
2022/09/30 08:43:00;;;;;;;;;;;18.20;85.10;;;;;;5071584;28;19965;-90
2022/09/30 08:45:44;;;;;;;;;;;18.20;84.80;;;;;;5071747;28;20419;-90
2022/09/30 08:48:10;;;;;;;;;;;18.30;84.10;;;;;;5072151;28;19951;-90
2022/09/30 08:50:38;;;;;;;;;;;18.50;83.40;;;;;;5071823;28;19960;-90
2022/09/30 08:53:08;;;;;;;;;;;18.60;83.30;;;;;;5069561;28;19952;-90
2022/09/30 08:55:43;;;;;;;;;;;18.80;82.20;;;;;;5060419;28;19949;-90
2022/09/30 08:58:23;;;;;;;;;;;18.80;82.30;;;;;;5071248;28;20417;-90
2022/09/30 09:00:53;;;;;;;;;;;18.90;81.10;;;;;;5053633;28;19966;-90
2022/09/30 09:03:20;;;;;;;;;;;19.00;80.30;;;;;;5059676;28;20378;-90
2022/09/30 09:05:55;;;;;;;;;;;19.00;80.10;;;;;;5065941;28;19952;-90
2022/09/30 09:08:20;;;;;;;;;;;19.00;79.80;;;;;;5065664;28;20123;-90
2022/09/30 09:11:05;;;;;;;;;;;19.00;79.90;;;;;;5070646;28;20455;-90
2022/09/30 09:13:54;;;;;;;;;;;19.10;80.20;;;;;;5066641;28;19962;-90
2022/09/30 09:16:49;;;;;;;;;;;19.10;80.30;;;;;;5069437;28;19968;-90
2022/09/30 09:19:16;;;;;;;;;;;19.20;79.70;;;;;;5057843;28;19942;-91
2022/09/30 09:21:44;;;;;;;;;;;19.20;79.40;;;;;;5070162;28;20439;-90
2022/09/30 09:24:21;;;;;;;;;;;19.20;79.10;;;;;;5071408;28;19966;-90
2022/09/30 09:26:47;;;;;;;;;;;19.10;79.20;;;;;;5069596;28;20418;-90
2022/09/30 09:29:30;;;;;;;;;;;19.10;79.10;;;;;;5076283;28;20063;-90
2022/09/30 09:31:58;;;;;;;;;;;19.30;79.20;;;;;;5058154;28;19988;-90
2022/09/30 09:34:24;;;;;;;;;;;19.30;78.90;;;;;;5075852;28;19993;-90
2022/09/30 09:36:55;;;;;;;;;;;19.40;79.10;;;;;;5071336;28;20458;-90
2022/09/30 09:39:37;;;;;;;;;;;19.40;79.20;;;;;;5073751;28;19941;-90
2022/09/30 09:42:06;;;;;;;;;;;19.50;78.90;;;;;;5070391;28;20371;-90
2022/09/30 09:44:32;;;;;;;;;;;19.50;78.60;;;;;;5071291;28;20398;-90
2022/09/30 09:47:12;;;;;;;;;;;19.70;78.20;;;;;;5070942;28;19950;-90
2022/09/30 09:49:56;;;;;;;;;;;19.70;78.20;;;;;;5061838;28;19949;-90
2022/09/30 09:52:23;;;;;;;;;;;19.80;78.60;;;;;;5075426;28;19968;-90
2022/09/30 09:54:51;;;;;;;;;;;20.00;77.50;;;;;;5074977;28;19948;-90
2022/09/30 09:57:18;;;;;;;;;;;20.10;77.00;;;;;;5074704;28;20461;-91
2022/09/30 09:59:59;;;;;;;;;;;20.20;76.20;;;;;;5073900;28;20411;-91
2022/09/30 10:02:28;;;;;;;;;;;20.30;76.00;;;;;;5073785;28;19951;-90
2022/09/30 10:05:02;;;;;;;;;;;20.30;75.70;;;;;;5072358;28;19958;-90
2022/09/30 10:07:32;;;;;;;;;;;20.40;75.70;;;;;;5074990;28;19951;-90
2022/09/30 10:10:24;;;;;;;;;;;20.40;75.70;;;;;;5073792;28;20047;-90
2022/09/30 10:12:49;;;;;;;;;;;20.40;75.60;;;;;;5069249;28;19943;-90
2022/09/30 10:15:20;;;;;;;;;;;20.40;75.40;;;;;;5059336;28;19976;-90
2022/09/30 10:17:56;;;;;;;;;;;20.30;75.80;;;;;;5055598;28;20051;-90
2022/09/30 10:20:32;;;;;;;;;;;20.30;76.10;;;;;;5055425;28;19943;-90
2022/09/30 10:23:06;;;;;;;;;;;20.20;75.60;;;;;;5055375;28;19959;-90
2022/09/30 10:25:32;;;;;;;;;;;20.20;76.20;;;;;;5054573;28;19954;-90
2022/09/30 10:28:01;;;;;;;;;;;20.30;76.10;;;;;;5054064;28;20299;-90
2022/09/30 10:30:30;;;;;;;;;;;20.30;76.10;;;;;;5055406;28;19940;-90
2022/09/30 10:32:55;;;;;;;;;;;20.30;76.30;;;;;;5055360;28;19977;-90
2022/09/30 10:35:22;;;;;;;;;;;20.30;76.20;;;;;;5055090;28;19978;-90
2022/09/30 10:37:51;;;;;;;;;;;20.50;76.20;;;;;;5066020;28;19945;-90
2022/09/30 10:40:17;;;;;;;;;;;20.50;75.50;;;;;;5075223;28;20395;-90
2022/09/30 10:42:45;;;;;;;;;;;20.50;75.50;;;;;;5075086;28;20073;-90
2022/09/30 10:45:46;;;;;;;;;;;20.50;75.80;;;;;;5074776;28;19950;-90
2022/09/30 10:48:16;;;;;;;;;;;20.40;75.80;;;;;;4993448;28;19940;-90
2022/09/30 10:50:48;;;;;;;;;;;20.40;75.50;;;;;;5060124;28;19988;-90
2022/09/30 10:53:17;;;;;;;;;;;20.40;75.70;;;;;;5074950;28;20394;-90
2022/09/30 10:55:44;;;;;;;;;;;20.30;75.10;;;;;;5074841;28;19989;-90
2022/09/30 10:58:18;;;;;;;;;;;20.10;75.70;;;;;;5074727;28;19945;-90
2022/09/30 11:00:45;;;;;;;;;;;20.00;75.80;;;;;;5074763;28;19979;-90
2022/09/30 11:03:16;;;;;;;;;;;19.90;76.60;;;;;;5074589;28;19963;-90
2022/09/30 11:05:43;;;;;;;;;;;20.00;77.10;;;;;;5074607;28;20005;-90
2022/09/30 11:08:24;;;;;;;;;;;19.90;77.20;;;;;;5074624;28;19940;-90
2022/09/30 11:10:57;;;;;;;;;;;19.90;77.40;;;;;;5074594;28;20336;-90
2022/09/30 11:13:29;;;;;;;;;;;19.90;77.20;;;;;;5074573;28;19958;-90
2022/09/30 11:16:13;;;;;;;;;;;19.90;77.50;;;;;;5074074;28;20020;-90
2022/09/30 11:18:58;;;;;;;;;;;19.90;77.70;;;;;;5059222;28;20444;-90
2022/09/30 11:21:43;;;;;;;;;;;19.90;77.70;;;;;;5054368;28;19942;-90
2022/09/30 11:24:28;;;;;;;;;;;20.00;77.70;;;;;;5040121;28;20440;-90
2022/09/30 11:27:09;;;;;;;;;;;19.90;77.70;;;;;;5059716;28;19944;-90
2022/09/30 11:29:56;;;;;;;;;;;19.90;78.10;;;;;;5073388;28;19946;-90
2022/09/30 11:32:29;;;;;;;;;;;19.90;78.60;;;;;;5073648;28;19948;-90
2022/09/30 11:35:00;;;;;;;;;;;19.80;78.50;;;;;;5069274;28;19943;-89
2022/09/30 11:37:38;;;;;;;;;;;19.80;78.60;;;;;;5073468;28;20022;-91
2022/09/30 11:40:22;;;;;;;;;;;19.80;78.80;;;;;;5073469;28;19952;-90
2022/09/30 11:42:54;;;;;;;;;;;19.90;79.00;;;;;;5073884;28;19965;-90
2022/09/30 11:45:38;;;;;;;;;;;19.90;78.70;;;;;;5063559;28;20241;-91
2022/09/30 11:48:06;;;;;;;;;;;19.90;78.10;;;;;;5068563;28;19991;-91
2022/09/30 11:50:32;;;;;;;;;;;19.80;78.40;;;;;;5069089;28;19995;-90
2022/09/30 11:52:57;;;;;;;;;;;19.80;78.70;;;;;;5060717;28;19940;-90
2022/09/30 11:55:40;;;;;;;;;;;19.90;78.60;;;;;;5061047;28;19941;-91
2022/09/30 11:58:05;;;;;;;;;;;19.80;79.20;;;;;;5067112;28;19937;-90
2022/09/30 12:00:33;;;;;;;;;;;19.70;80.20;;;;;;5066521;28;20398;-90
2022/09/30 12:03:05;;;;;;;;;;;19.70;80.60;;;;;;5073149;28;19963;-90
2022/09/30 12:05:32;;;;;;;;;;;19.60;80.20;;;;;;5073658;28;19942;-91
2022/09/30 12:08:01;;;;;;;;;;;19.50;80.60;;;;;;5073428;28;19993;-91
2022/09/30 12:10:32;;;;;;;;;;;19.40;80.90;;;;;;5063902;28;19971;-91
2022/09/30 12:13:02;;;;;;;;;;;19.30;81.00;;;;;;5069043;28;19943;-91
2022/09/30 12:15:28;;;;;;;;;;;19.30;81.70;;;;;;5070757;28;19972;-90
2022/09/30 12:17:57;;;;;;;;;;;19.20;81.90;;;;;;5071675;28;19974;-91
2022/09/30 12:20:44;;;;;;;;;;;19.10;82.30;;;;;;5064363;28;20407;-91
2022/09/30 12:23:10;;;;;;;;;;;19.10;82.50;;;;;;5045798;28;19964;-91
2022/09/30 12:25:39;;;;;;;;;;;19.00;82.60;;;;;;5070149;28;20725;-91
2022/09/30 12:30:16;;;;;;;;;;;18.90;82.30;;;;;;5070598;28;20030;-91
2022/09/30 12:31:06;;;;;;;;;;;18.90;82.60;;;;;;5069560;28;19947;-91
2022/09/30 12:33:34;;;;;;;;;;;18.80;83.10;;;;;;5071084;28;19987;-91
2022/09/30 12:36:13;;;;;;;;;;;18.80;83.50;;;;;;5070369;28;19947;-90
2022/09/30 12:38:48;;;;;;;;;;;18.70;83.80;;;;;;5050309;28;19945;-91
2022/09/30 12:41:49;;;;;;;;;;;18.70;83.80;;;;;;5071109;28;19968;-91
2022/09/30 12:44:26;;;;;;;;;;;18.60;83.90;;;;;;4989534;28;19995;-91
2022/09/30 12:47:00;;;;;;;;;;;18.60;84.40;;;;;;5054650;28;19959;-91
2022/09/30 12:49:26;;;;;;;;;;;18.50;84.60;;;;;;5068543;28;19948;-91
2022/09/30 12:51:54;;;;;;;;;;;18.50;84.80;;;;;;5071529;28;19990;-91
2022/09/30 12:54:29;;;;;;;;;;;18.40;85.00;;;;;;5068628;28;19950;-91
2022/09/30 12:56:59;;;;;;;;;;;18.40;85.20;;;;;;5072229;28;19945;-91
2022/09/30 12:59:32;;;;;;;;;;;18.40;85.40;;;;;;5072598;28;19948;-91
2022/09/30 13:01:59;;;;;;;;;;;18.40;85.70;;;;;;5069646;28;19946;-91
2022/09/30 13:04:30;;;;;;;;;;;18.40;85.90;;;;;;5072786;28;19964;-91
2022/09/30 13:06:56;;;;;;;;;;;18.30;86.00;;;;;;5072393;28;19999;-90
2022/09/30 13:09:29;;;;;;;;;;;18.30;86.20;;;;;;5071641;28;19942;-91
2022/09/30 13:11:54;;;;;;;;;;;18.30;86.20;;;;;;5072494;28;19956;-91
2022/09/30 13:14:26;;;;;;;;;;;18.30;86.30;;;;;;5072153;28;20304;-91
2022/09/30 13:17:01;;;;;;;;;;;18.30;86.50;;;;;;5072954;28;19940;-91
2022/09/30 13:19:31;;;;;;;;;;;18.30;86.60;;;;;;5071954;28;20490;-91
2022/09/30 13:22:15;;;;;;;;;;;18.30;86.70;;;;;;5054824;28;19951;-91
2022/09/30 13:24:59;;;;;;;;;;;18.30;86.80;;;;;;5072783;28;19958;-90
2022/09/30 13:27:31;;;;;;;;;;;18.30;87.10;;;;;;5073080;28;19953;-91
2022/09/30 13:29:58;;;;;;;;;;;18.30;87.20;;;;;;5056137;28;19953;-91
2022/09/30 13:32:36;;;;;;;;;;;18.20;87.50;;;;;;5072700;28;19990;-90
2022/09/30 13:35:21;;;;;;;;;;;18.20;87.60;;;;;;5072131;28;19943;-90
2022/09/30 13:38:07;;;;;;;;;;;18.20;87.50;;;;;;5066967;28;19955;-91
2022/09/30 13:40:32;;;;;;;;;;;18.20;87.50;;;;;;5072153;28;20066;-91
2022/09/30 13:42:59;;;;;;;;;;;18.10;87.60;;;;;;5072296;28;20100;-91
2022/09/30 13:45:30;;;;;;;;;;;18.10;87.70;;;;;;5069306;28;19947;-90
2022/09/30 13:48:13;;;;;;;;;;;18.10;87.80;;;;;;5071468;28;20423;-90
2022/09/30 13:50:45;;;;;;;;;;;18.10;87.90;;;;;;5070918;28;19965;-91
2022/09/30 13:53:31;;;;;;;;;;;18.00;88.00;;;;;;5072194;28;19949;-91
2022/09/30 13:55:58;;;;;;;;;;;18.00;88.20;;;;;;5057994;28;20407;-91
2022/09/30 13:58:33;;;;;;;;;;;18.00;88.50;;;;;;5072128;28;20062;-91
2022/09/30 14:01:02;;;;;;;;;;;18.10;88.40;;;;;;5056827;28;20292;-91
2022/09/30 14:03:43;;;;;;;;;;;18.10;88.30;;;;;;5070725;28;19965;-91
2022/09/30 14:06:21;;;;;;;;;;;18.00;88.40;;;;;;5071616;28;19950;-90
2022/09/30 14:09:03;;;;;;;;;;;18.00;88.50;;;;;;5075043;28;20301;-91
2022/09/30 14:11:54;;;;;;;;;;;18.00;88.60;;;;;;5075611;28;20010;-91
2022/09/30 14:14:26;;;;;;;;;;;17.90;88.60;;;;;;5074166;28;19952;-91
2022/09/30 14:16:51;;;;;;;;;;;17.80;88.90;;;;;;5075796;28;19946;-91
2022/09/30 14:19:32;;;;;;;;;;;17.80;89.10;;;;;;5075337;28;20348;-91
2022/09/30 14:22:03;;;;;;;;;;;17.80;89.20;;;;;;5075358;28;19973;-91
2022/09/30 14:24:32;;;;;;;;;;;17.80;89.40;;;;;;5075492;28;19967;-91
2022/09/30 14:27:09;;;;;;;;;;;17.70;89.60;;;;;;5075443;28;19949;-91
2022/09/30 14:29:42;;;;;;;;;;;17.70;89.80;;;;;;5045478;28;19952;-91
2022/09/30 14:32:28;;;;;;;;;;;17.70;89.60;;;;;;5068971;28;20126;-91
2022/09/30 14:34:55;;;;;;;;;;;17.60;89.70;;;;;;5072109;28;20031;-91